Minerva Concert — SVWC — position and weather

sailwx.info

Track history (hours):
 
Tides and Currents Weather Stations Pressure Air Temp Water Temp Dewpoint Dewpoint Depression Visibility Wind Speed Wind Dir Waves Ship Positions

Minerva Concert

Last reported at 2016-Jan-31 13:32 UTC. Time now 2016-Feb-11 06:33 UTC.
Position N 33°05' E 034°25'.
Warning: this ship's position is 10 days out of date.

Length 241 m; draft 14.1 m.

Type: Ship. MMSI: 240110000.

Date/timePositionNaut miles runAvg speedWind from/ knotsBaromVisibWave heightAir tempDewpointWater temp
2016-Jan-31 13:32N 33°05' E 034°25'46912.6
2016-Jan-30 00:22N 37°12' E 026°18'1513.8
2016-Jan-29 23:17N 37°20' E 026°02'1014.2
2016-Jan-29 22:33N 37°25' E 025°51'1312.8
2016-Jan-29 21:34N 37°36' E 025°43'1413.8
2016-Jan-29 20:34N 37°49' E 025°37'  
2016-Jan-25 16:13N 40°55' E 028°50'810.2
2016-Jan-25 15:28N 40°59' E 028°59'  
2016-Jan-22 21:33N 44°24' E 037°23'1212.5
2016-Jan-22 20:34N 44°30' E 037°38'6 5.8
2016-Jan-22 19:33N 44°35' E 037°42'0 0.2
2016-Jan-22 18:34N 44°35' E 037°42'1 0.8
2016-Jan-22 17:33N 44°36' E 037°42'1 0.6
2016-Jan-22 16:34N 44°35' E 037°42'2 2.1
2016-Jan-22 15:33N 44°36' E 037°39'1 1.2
2016-Jan-22 14:34N 44°37' E 037°40'0 0.0
2016-Jan-22 13:34N 44°37' E 037°40'0 0.1
2016-Jan-22 12:33N 44°37' E 037°39'0 0.1
2016-Jan-22 11:34N 44°37' E 037°40'0 0.0
2016-Jan-22 10:33N 44°37' E 037°40'0 0.0
2016-Jan-22 09:33N 44°37' E 037°40'0 0.1
2016-Jan-22 08:20N 44°37' E 037°39'0 0.1
2016-Jan-22 07:33N 44°37' E 037°40'0 0.0
2016-Jan-22 06:32N 44°37' E 037°40'0 0.0
2016-Jan-22 05:33N 44°37' E 037°39'0 0.0
2016-Jan-22 04:05N 44°37' E 037°40'0 0.0
2016-Jan-22 03:25N 44°37' E 037°40'0 0.0
2016-Jan-22 02:27N 44°37' E 037°40'0 0.1
2016-Jan-22 01:23N 44°37' E 037°40'0 0.0
2016-Jan-22 00:33N 44°37' E 037°40'0 0.0
2016-Jan-21 23:31N 44°37' E 037°40'0 0.2
2016-Jan-21 22:28N 44°37' E 037°39'3 3.1
2016-Jan-21 21:34N 44°35' E 037°42'1 0.8
2016-Jan-21 20:33N 44°35' E 037°41'1 1.0
2016-Jan-21 19:34N 44°34' E 037°41'1 1.1
2016-Jan-21 18:33N 44°33' E 037°41'2 1.7
2016-Jan-21 17:34N 44°32' E 037°43'6 6.4
2016-Jan-21 16:34N 44°29' E 037°51'1 1.3
2016-Jan-21 15:33N 44°28' E 037°49'1 1.4
2016-Jan-21 14:33N 44°28' E 037°47'5 4.6
2016-Jan-21 13:34N 44°31' E 037°42'  
Track history (hours):
 
Tides and Currents Weather Stations Pressure Air Temp Water Temp Dewpoint Dewpoint Depression Visibility Wind Speed Wind Dir Waves Ship Positions

Minerva Concert

Last reported at 2016-Jan-31 13:32 UTC. Time now 2016-Feb-11 06:33 UTC.
Position N 33°05' E 034°25'.
Warning: this ship's position is 10 days out of date.

Length 241 m; draft 14.1 m.

Type: Ship. MMSI: 240110000.

Date/timePositionNaut miles runAvg speedWind from/ knotsBaromVisibWave heightAir tempDewpointWater temp
2016-Jan-31 13:32N 33°05' E 034°25'46912.6
2016-Jan-30 00:22N 37°12' E 026°18'1513.8
2016-Jan-29 23:17N 37°20' E 026°02'1014.2
2016-Jan-29 22:33N 37°25' E 025°51'1312.8
2016-Jan-29 21:34N 37°36' E 025°43'1413.8
2016-Jan-29 20:34N 37°49' E 025°37'  
2016-Jan-25 16:13N 40°55' E 028°50'810.2
2016-Jan-25 15:28N 40°59' E 028°59'  
2016-Jan-22 21:33N 44°24' E 037°23'1212.5
2016-Jan-22 20:34N 44°30' E 037°38'6 5.8
2016-Jan-22 19:33N 44°35' E 037°42'0 0.2
2016-Jan-22 18:34N 44°35' E 037°42'1 0.8
2016-Jan-22 17:33N 44°36' E 037°42'1 0.6
2016-Jan-22 16:34N 44°35' E 037°42'2 2.1
2016-Jan-22 15:33N 44°36' E 037°39'1 1.2
2016-Jan-22 14:34N 44°37' E 037°40'0 0.0
2016-Jan-22 13:34N 44°37' E 037°40'0 0.1
2016-Jan-22 12:33N 44°37' E 037°39'0 0.1
2016-Jan-22 11:34N 44°37' E 037°40'0 0.0
2016-Jan-22 10:33N 44°37' E 037°40'0 0.0
2016-Jan-22 09:33N 44°37' E 037°40'0 0.1
2016-Jan-22 08:20N 44°37' E 037°39'0 0.1
2016-Jan-22 07:33N 44°37' E 037°40'0 0.0
2016-Jan-22 06:32N 44°37' E 037°40'0 0.0
2016-Jan-22 05:33N 44°37' E 037°39'0 0.0
2016-Jan-22 04:05N 44°37' E 037°40'0 0.0
2016-Jan-22 03:25N 44°37' E 037°40'0 0.0
2016-Jan-22 02:27N 44°37' E 037°40'0 0.1
2016-Jan-22 01:23N 44°37' E 037°40'0 0.0
2016-Jan-22 00:33N 44°37' E 037°40'0 0.0
2016-Jan-21 23:31N 44°37' E 037°40'0 0.2
2016-Jan-21 22:28N 44°37' E 037°39'3 3.1
2016-Jan-21 21:34N 44°35' E 037°42'1 0.8
2016-Jan-21 20:33N 44°35' E 037°41'1 1.0
2016-Jan-21 19:34N 44°34' E 037°41'1 1.1
2016-Jan-21 18:33N 44°33' E 037°41'2 1.7
2016-Jan-21 17:34N 44°32' E 037°43'6 6.4
2016-Jan-21 16:34N 44°29' E 037°51'1 1.3
2016-Jan-21 15:33N 44°28' E 037°49'1 1.4
2016-Jan-21 14:33N 44°28' E 037°47'5 4.6
2016-Jan-21 13:34N 44°31' E 037°42'  

Dump ship's entire track history